createdAt,value
2022-10-21T00:19:18.469Z,16.0
2022-10-21T00:39:18.210Z,19.3
2022-10-21T00:59:17.934Z,12.8
2022-10-21T01:19:17.741Z,16.2
2022-10-21T01:39:17.407Z,21.5
2022-10-21T01:59:17.134Z,13.1
2022-10-21T02:19:17.029Z,14.4
2022-10-21T02:39:16.604Z,12.8
2022-10-21T02:59:16.350Z,17.6
2022-10-21T03:19:16.082Z,14.9
2022-10-21T03:39:15.829Z,17.0
2022-10-21T03:59:15.564Z,19.9
2022-10-21T04:19:15.298Z,15.8
2022-10-21T04:39:15.026Z,22.6
2022-10-21T04:59:15.822Z,17.8
2022-10-21T05:19:14.488Z,16.2
2022-10-21T05:39:14.204Z,16.9
2022-10-21T05:59:13.920Z,21.3
2022-10-21T06:19:13.669Z,20.0
2022-10-21T06:39:13.354Z,17.4
2022-10-21T06:59:13.069Z,21.4
2022-10-21T07:19:12.786Z,16.1
2022-10-21T07:39:12.501Z,16.2
2022-10-21T07:59:13.282Z,16.7
2022-10-21T08:19:11.984Z,27.9
2022-10-21T08:39:11.680Z,17.2
2022-10-21T08:59:11.418Z,20.5
2022-10-21T09:19:11.204Z,19.0
2022-10-21T09:39:10.860Z,19.0
2022-10-21T09:59:10.618Z,16.9
2022-10-21T10:19:10.323Z,13.2
2022-10-21T10:39:10.107Z,11.6
2022-10-21T10:59:10.769Z,9.1
2022-10-21T11:19:10.504Z,9.2
2022-10-21T11:39:09.239Z,8.7
2022-10-21T11:59:08.984Z,4.9
2022-10-21T12:19:08.762Z,7.6
2022-10-21T12:39:08.428Z,9.0
2022-10-21T12:59:08.180Z,7.5
2022-10-21T13:19:07.918Z,10.5
2022-10-21T13:39:07.745Z,11.9
2022-10-21T13:59:07.413Z,9.4
2022-10-21T14:19:07.215Z,6.2
2022-10-21T14:39:06.879Z,9.6
2022-10-21T14:59:06.576Z,9.6
2022-10-21T15:19:06.296Z,6.3
2022-10-21T15:39:09.135Z,7.3
2022-10-21T15:59:05.742Z,6.1
2022-10-21T16:19:05.438Z,5.9
2022-10-21T16:39:05.198Z,8.0
2022-10-21T16:59:04.986Z,9.8
2022-10-21T17:19:04.657Z,8.0
2022-10-21T17:39:04.401Z,7.5
2022-10-21T17:59:04.131Z,8.5
2022-10-21T18:19:03.864Z,9.2
2022-10-21T18:39:03.597Z,9.5
2022-10-21T18:59:03.330Z,10.3
2022-10-21T19:19:03.068Z,9.8
2022-10-21T19:39:03.813Z,10.1
2022-10-21T19:59:02.996Z,12.0
2022-10-21T20:19:02.278Z,10.9
2022-10-21T20:39:02.053Z,14.0
2022-10-21T20:59:01.794Z,11.7
2022-10-21T21:19:01.501Z,9.5
2022-10-21T21:39:01.294Z,8.7
2022-10-21T21:59:00.974Z,14.5
2022-10-21T22:19:00.717Z,13.0
2022-10-21T22:39:00.449Z,13.7
2022-10-21T22:59:00.193Z,14.5
2022-10-21T23:19:00.002Z,14.7
2022-10-21T23:38:59.675Z,13.5
2022-10-21T23:58:59.364Z,14.9
